sensor_id;sensor_type;location;lat;lon;timestamp;P1;durP1;ratioP1;P2;durP2;ratioP2
75207;SDS011;63795;55.684;37.864;2023-08-17T00:00:54;11.68;;;4.63;;
75207;SDS011;63795;55.684;37.864;2023-08-17T00:05:54;10.70;;;6.07;;
75207;SDS011;63795;55.684;37.864;2023-08-17T00:10:55;7.57;;;3.17;;
75207;SDS011;63795;55.684;37.864;2023-08-17T00:15:55;14.13;;;7.90;;
75207;SDS011;63795;55.684;37.864;2023-08-17T00:20:56;10.85;;;3.83;;
75207;SDS011;63795;55.684;37.864;2023-08-17T00:25:56;6.15;;;3.42;;
75207;SDS011;63795;55.684;37.864;2023-08-17T00:30:57;7.63;;;4.47;;
75207;SDS011;63795;55.684;37.864;2023-08-17T00:35:58;10.82;;;4.63;;
75207;SDS011;63795;55.684;37.864;2023-08-17T00:40:58;7.72;;;3.50;;
75207;SDS011;63795;55.684;37.864;2023-08-17T00:45:59;8.10;;;3.80;;
75207;SDS011;63795;55.684;37.864;2023-08-17T00:51:00;5.93;;;2.95;;
75207;SDS011;63795;55.684;37.864;2023-08-17T00:56:02;11.20;;;3.70;;
75207;SDS011;63795;55.684;37.864;2023-08-17T01:01:03;8.13;;;7.13;;
75207;SDS011;63795;55.684;37.864;2023-08-17T01:06:03;5.45;;;2.00;;
75207;SDS011;63795;55.684;37.864;2023-08-17T01:16:07;7.22;;;2.72;;
75207;SDS011;63795;55.684;37.864;2023-08-17T01:21:14;8.65;;;4.18;;
75207;SDS011;63795;55.684;37.864;2023-08-17T01:26:18;7.00;;;3.30;;
75207;SDS011;63795;55.684;37.864;2023-08-17T01:31:28;6.68;;;3.15;;
75207;SDS011;63795;55.684;37.864;2023-08-17T01:36:42;6.55;;;3.00;;
75207;SDS011;63795;55.684;37.864;2023-08-17T01:41:46;7.30;;;3.28;;
75207;SDS011;63795;55.684;37.864;2023-08-17T01:46:48;6.18;;;3.00;;
75207;SDS011;63795;55.684;37.864;2023-08-17T01:51:48;6.20;;;2.38;;
75207;SDS011;63795;55.684;37.864;2023-08-17T01:56:49;7.30;;;2.53;;
75207;SDS011;63795;55.684;37.864;2023-08-17T02:01:49;8.73;;;3.00;;
75207;SDS011;63795;55.684;37.864;2023-08-17T02:06:50;9.70;;;3.57;;
75207;SDS011;63795;55.684;37.864;2023-08-17T02:11:50;7.53;;;3.43;;
75207;SDS011;63795;55.684;37.864;2023-08-17T02:16:51;8.27;;;4.00;;
75207;SDS011;63795;55.684;37.864;2023-08-17T02:21:52;6.65;;;4.05;;
75207;SDS011;63795;55.684;37.864;2023-08-17T02:26:53;10.80;;;4.17;;
75207;SDS011;63795;55.684;37.864;2023-08-17T02:31:53;7.90;;;2.95;;
75207;SDS011;63795;55.684;37.864;2023-08-17T02:36:54;6.43;;;3.38;;
75207;SDS011;63795;55.684;37.864;2023-08-17T02:41:54;10.47;;;4.30;;
75207;SDS011;63795;55.684;37.864;2023-08-17T02:46:54;7.03;;;2.90;;
75207;SDS011;63795;55.684;37.864;2023-08-17T02:51:55;8.50;;;4.95;;
75207;SDS011;63795;55.684;37.864;2023-08-17T02:56:55;7.47;;;3.10;;
75207;SDS011;63795;55.684;37.864;2023-08-17T03:01:56;6.03;;;4.17;;
75207;SDS011;63795;55.684;37.864;2023-08-17T03:06:57;7.75;;;2.83;;
75207;SDS011;63795;55.684;37.864;2023-08-17T03:11:57;8.18;;;3.78;;
75207;SDS011;63795;55.684;37.864;2023-08-17T03:16:58;8.93;;;6.80;;
75207;SDS011;63795;55.684;37.864;2023-08-17T03:21:58;9.53;;;6.57;;
75207;SDS011;63795;55.684;37.864;2023-08-17T03:26:59;12.40;;;3.80;;
75207;SDS011;63795;55.684;37.864;2023-08-17T03:31:59;9.82;;;5.25;;
75207;SDS011;63795;55.684;37.864;2023-08-17T03:37:00;7.60;;;3.20;;
75207;SDS011;63795;55.684;37.864;2023-08-17T03:42:00;5.03;;;2.20;;
75207;SDS011;63795;55.684;37.864;2023-08-17T03:47:00;6.60;;;3.00;;
75207;SDS011;63795;55.684;37.864;2023-08-17T03:52:01;5.23;;;2.00;;
75207;SDS011;63795;55.684;37.864;2023-08-17T03:57:01;5.00;;;2.87;;
75207;SDS011;63795;55.684;37.864;2023-08-17T04:02:02;9.57;;;3.08;;
75207;SDS011;63795;55.684;37.864;2023-08-17T04:07:03;8.07;;;3.28;;
75207;SDS011;63795;55.684;37.864;2023-08-17T04:12:03;7.03;;;2.28;;
75207;SDS011;63795;55.684;37.864;2023-08-17T04:17:06;5.82;;;2.55;;
75207;SDS011;63795;55.684;37.864;2023-08-17T04:22:06;4.85;;;2.15;;
75207;SDS011;63795;55.684;37.864;2023-08-17T04:27:07;5.53;;;2.95;;
75207;SDS011;63795;55.684;37.864;2023-08-17T04:32:07;6.20;;;2.47;;
75207;SDS011;63795;55.684;37.864;2023-08-17T04:37:13;8.05;;;2.15;;
75207;SDS011;63795;55.684;37.864;2023-08-17T04:42:14;5.10;;;2.13;;
75207;SDS011;63795;55.684;37.864;2023-08-17T04:47:15;7.82;;;2.05;;
75207;SDS011;63795;55.684;37.864;2023-08-17T04:52:15;9.05;;;2.70;;
75207;SDS011;63795;55.684;37.864;2023-08-17T04:57:16;10.15;;;2.53;;
75207;SDS011;63795;55.684;37.864;2023-08-17T05:02:17;6.63;;;3.10;;
75207;SDS011;63795;55.684;37.864;2023-08-17T05:07:18;9.50;;;2.73;;
75207;SDS011;63795;55.684;37.864;2023-08-17T05:12:18;7.87;;;2.70;;
75207;SDS011;63795;55.684;37.864;2023-08-17T05:17:19;10.43;;;1.77;;
75207;SDS011;63795;55.684;37.864;2023-08-17T05:22:19;5.97;;;2.42;;
75207;SDS011;63795;55.684;37.864;2023-08-17T05:27:20;5.22;;;3.15;;
75207;SDS011;63795;55.684;37.864;2023-08-17T05:32:21;10.07;;;2.90;;
75207;SDS011;63795;55.684;37.864;2023-08-17T05:37:21;5.13;;;2.85;;
75207;SDS011;63795;55.684;37.864;2023-08-17T05:42:21;6.03;;;2.43;;
75207;SDS011;63795;55.684;37.864;2023-08-17T05:47:22;9.50;;;0.98;;
75207;SDS011;63795;55.684;37.864;2023-08-17T05:52:22;9.50;;;4.18;;
75207;SDS011;63795;55.684;37.864;2023-08-17T05:57:23;2.93;;;1.47;;
75207;SDS011;63795;55.684;37.864;2023-08-17T06:02:23;4.32;;;1.50;;
75207;SDS011;63795;55.684;37.864;2023-08-17T06:07:24;3.50;;;1.03;;
75207;SDS011;63795;55.684;37.864;2023-08-17T06:12:24;3.25;;;0.95;;
75207;SDS011;63795;55.684;37.864;2023-08-17T06:17:25;5.20;;;2.23;;
75207;SDS011;63795;55.684;37.864;2023-08-17T06:22:25;6.00;;;3.37;;
75207;SDS011;63795;55.684;37.864;2023-08-17T06:27:25;3.90;;;2.47;;
75207;SDS011;63795;55.684;37.864;2023-08-17T06:32:26;2.70;;;1.50;;
75207;SDS011;63795;55.684;37.864;2023-08-17T06:37:26;4.32;;;1.67;;
75207;SDS011;63795;55.684;37.864;2023-08-17T06:42:27;3.30;;;3.00;;
75207;SDS011;63795;55.684;37.864;2023-08-17T06:47:27;2.83;;;2.63;;
75207;SDS011;63795;55.684;37.864;2023-08-17T06:52:28;2.65;;;1.92;;
75207;SDS011;63795;55.684;37.864;2023-08-17T06:57:28;2.53;;;1.88;;
75207;SDS011;63795;55.684;37.864;2023-08-17T07:07:30;2.87;;;1.63;;
75207;SDS011;63795;55.684;37.864;2023-08-17T07:12:31;3.45;;;1.58;;
75207;SDS011;63795;55.684;37.864;2023-08-17T07:17:32;3.27;;;0.93;;
75207;SDS011;63795;55.684;37.864;2023-08-17T07:22:34;5.10;;;4.28;;
75207;SDS011;63795;55.684;37.864;2023-08-17T07:27:35;2.60;;;1.58;;
75207;SDS011;63795;55.684;37.864;2023-08-17T07:32:35;4.05;;;3.45;;
75207;SDS011;63795;55.684;37.864;2023-08-17T07:37:35;3.75;;;3.45;;
75207;SDS011;63795;55.684;37.864;2023-08-17T07:42:36;2.88;;;1.42;;
75207;SDS011;63795;55.684;37.864;2023-08-17T07:47:37;2.08;;;1.50;;
75207;SDS011;63795;55.684;37.864;2023-08-17T07:52:37;2.10;;;1.52;;
75207;SDS011;63795;55.684;37.864;2023-08-17T07:57:38;4.80;;;1.17;;
75207;SDS011;63795;55.684;37.864;2023-08-17T08:02:38;3.27;;;0.87;;
75207;SDS011;63795;55.684;37.864;2023-08-17T08:07:39;2.60;;;1.83;;
75207;SDS011;63795;55.684;37.864;2023-08-17T08:12:39;3.53;;;1.13;;
75207;SDS011;63795;55.684;37.864;2023-08-17T08:17:40;2.80;;;1.52;;
75207;SDS011;63795;55.684;37.864;2023-08-17T08:22:40;3.38;;;1.85;;
75207;SDS011;63795;55.684;37.864;2023-08-17T08:27:41;3.03;;;1.52;;
75207;SDS011;63795;55.684;37.864;2023-08-17T08:32:42;5.13;;;1.80;;
75207;SDS011;63795;55.684;37.864;2023-08-17T08:37:42;3.72;;;2.60;;
75207;SDS011;63795;55.684;37.864;2023-08-17T08:42:43;5.87;;;2.37;;
75207;SDS011;63795;55.684;37.864;2023-08-17T08:47:44;4.38;;;3.03;;
75207;SDS011;63795;55.684;37.864;2023-08-17T08:52:48;2.03;;;1.40;;
75207;SDS011;63795;55.684;37.864;2023-08-17T08:57:56;2.30;;;2.10;;
75207;SDS011;63795;55.684;37.864;2023-08-17T09:02:58;2.95;;;1.52;;
75207;SDS011;63795;55.684;37.864;2023-08-17T09:07:59;5.07;;;2.35;;
75207;SDS011;63795;55.684;37.864;2023-08-17T09:13:01;3.35;;;2.33;;
75207;SDS011;63795;55.684;37.864;2023-08-17T09:18:03;3.03;;;2.05;;
75207;SDS011;63795;55.684;37.864;2023-08-17T09:23:11;4.40;;;2.45;;
75207;SDS011;63795;55.684;37.864;2023-08-17T09:28:16;1.77;;;1.42;;
75207;SDS011;63795;55.684;37.864;2023-08-17T09:33:18;3.22;;;1.48;;
75207;SDS011;63795;55.684;37.864;2023-08-17T09:38:27;2.80;;;1.08;;
75207;SDS011;63795;55.684;37.864;2023-08-17T09:43:28;3.13;;;0.95;;
75207;SDS011;63795;55.684;37.864;2023-08-17T09:48:30;2.13;;;0.70;;
75207;SDS011;63795;55.684;37.864;2023-08-17T09:53:34;2.60;;;1.33;;
75207;SDS011;63795;55.684;37.864;2023-08-17T09:58:36;1.92;;;1.27;;
75207;SDS011;63795;55.684;37.864;2023-08-17T10:03:39;6.45;;;1.33;;
75207;SDS011;63795;55.684;37.864;2023-08-17T10:08:44;8.60;;;1.90;;
75207;SDS011;63795;55.684;37.864;2023-08-17T10:14:02;3.78;;;1.75;;
75207;SDS011;63795;55.684;37.864;2023-08-17T10:24:18;2.50;;;1.65;;
75207;SDS011;63795;55.684;37.864;2023-08-17T10:29:20;2.95;;;1.10;;
75207;SDS011;63795;55.684;37.864;2023-08-17T10:34:23;3.38;;;2.38;;
75207;SDS011;63795;55.684;37.864;2023-08-17T10:39:29;2.58;;;0.88;;
75207;SDS011;63795;55.684;37.864;2023-08-17T10:49:42;4.55;;;0.85;;
75207;SDS011;63795;55.684;37.864;2023-08-17T10:54:42;9.30;;;1.13;;
75207;SDS011;63795;55.684;37.864;2023-08-17T10:59:43;2.70;;;1.13;;
75207;SDS011;63795;55.684;37.864;2023-08-17T11:04:50;2.42;;;1.33;;
75207;SDS011;63795;55.684;37.864;2023-08-17T11:09:53;2.25;;;1.70;;
75207;SDS011;63795;55.684;37.864;2023-08-17T11:14:57;2.60;;;2.08;;
75207;SDS011;63795;55.684;37.864;2023-08-17T11:19:59;2.78;;;1.17;;
75207;SDS011;63795;55.684;37.864;2023-08-17T11:24:59;2.10;;;0.83;;
75207;SDS011;63795;55.684;37.864;2023-08-17T11:30:00;4.50;;;1.88;;
75207;SDS011;63795;55.684;37.864;2023-08-17T11:35:01;2.40;;;1.45;;
75207;SDS011;63795;55.684;37.864;2023-08-17T11:40:02;4.45;;;2.42;;
75207;SDS011;63795;55.684;37.864;2023-08-17T11:45:05;3.22;;;1.75;;
75207;SDS011;63795;55.684;37.864;2023-08-17T11:50:06;4.88;;;1.13;;
75207;SDS011;63795;55.684;37.864;2023-08-17T11:55:09;4.30;;;1.67;;
75207;SDS011;63795;55.684;37.864;2023-08-17T12:00:16;4.72;;;0.90;;
75207;SDS011;63795;55.684;37.864;2023-08-17T12:05:21;2.28;;;1.15;;
75207;SDS011;63795;55.684;37.864;2023-08-17T12:10:28;2.17;;;0.85;;
75207;SDS011;63795;55.684;37.864;2023-08-17T12:15:35;5.45;;;1.10;;
75207;SDS011;63795;55.684;37.864;2023-08-17T12:20:38;3.17;;;1.20;;
75207;SDS011;63795;55.684;37.864;2023-08-17T12:25:40;5.30;;;0.52;;
75207;SDS011;63795;55.684;37.864;2023-08-17T12:30:40;5.65;;;1.00;;
75207;SDS011;63795;55.684;37.864;2023-08-17T12:35:41;5.05;;;1.27;;
75207;SDS011;63795;55.684;37.864;2023-08-17T12:40:41;4.30;;;0.90;;
75207;SDS011;63795;55.684;37.864;2023-08-17T12:45:42;3.65;;;0.50;;
75207;SDS011;63795;55.684;37.864;2023-08-17T12:50:42;2.35;;;1.10;;
75207;SDS011;63795;55.684;37.864;2023-08-17T12:55:42;2.95;;;1.70;;
75207;SDS011;63795;55.684;37.864;2023-08-17T13:00:43;3.90;;;1.13;;
75207;SDS011;63795;55.684;37.864;2023-08-17T13:05:43;2.53;;;1.77;;
75207;SDS011;63795;55.684;37.864;2023-08-17T13:10:44;1.77;;;0.82;;
75207;SDS011;63795;55.684;37.864;2023-08-17T13:15:44;2.92;;;0.93;;
75207;SDS011;63795;55.684;37.864;2023-08-17T13:20:45;2.42;;;1.20;;
75207;SDS011;63795;55.684;37.864;2023-08-17T13:25:45;2.43;;;1.33;;
75207;SDS011;63795;55.684;37.864;2023-08-17T13:30:46;5.18;;;1.88;;
75207;SDS011;63795;55.684;37.864;2023-08-17T13:35:46;5.82;;;0.75;;
75207;SDS011;63795;55.684;37.864;2023-08-17T13:40:47;2.70;;;1.77;;
75207;SDS011;63795;55.684;37.864;2023-08-17T13:45:47;3.67;;;1.35;;
75207;SDS011;63795;55.684;37.864;2023-08-17T13:50:48;5.20;;;1.53;;
75207;SDS011;63795;55.684;37.864;2023-08-17T13:55:48;7.60;;;1.83;;
75207;SDS011;63795;55.684;37.864;2023-08-17T14:00:49;4.32;;;2.10;;
75207;SDS011;63795;55.684;37.864;2023-08-17T14:05:49;3.23;;;1.33;;
75207;SDS011;63795;55.684;37.864;2023-08-17T14:10:50;3.42;;;1.13;;
75207;SDS011;63795;55.684;37.864;2023-08-17T14:15:50;4.17;;;0.77;;
75207;SDS011;63795;55.684;37.864;2023-08-17T14:20:51;5.47;;;2.90;;
75207;SDS011;63795;55.684;37.864;2023-08-17T14:25:51;4.75;;;1.45;;
75207;SDS011;63795;55.684;37.864;2023-08-17T14:30:52;5.70;;;1.50;;
75207;SDS011;63795;55.684;37.864;2023-08-17T14:35:52;6.13;;;1.83;;
75207;SDS011;63795;55.684;37.864;2023-08-17T14:40:53;5.90;;;1.40;;
75207;SDS011;63795;55.684;37.864;2023-08-17T14:45:53;2.60;;;1.73;;
75207;SDS011;63795;55.684;37.864;2023-08-17T14:50:54;4.38;;;2.53;;
75207;SDS011;63795;55.684;37.864;2023-08-17T15:00:55;3.53;;;2.45;;
75207;SDS011;63795;55.684;37.864;2023-08-17T15:10:55;4.87;;;1.90;;
75207;SDS011;63795;55.684;37.864;2023-08-17T15:16:01;2.95;;;1.70;;
75207;SDS011;63795;55.684;37.864;2023-08-17T15:26:02;2.93;;;1.50;;
75207;SDS011;63795;55.684;37.864;2023-08-17T15:36:12;4.50;;;2.65;;
75207;SDS011;63795;55.684;37.864;2023-08-17T15:41:12;2.75;;;1.27;;
75207;SDS011;63795;55.684;37.864;2023-08-17T15:51:13;7.85;;;2.78;;
75207;SDS011;63795;55.684;37.864;2023-08-17T15:56:14;6.65;;;2.85;;
75207;SDS011;63795;55.684;37.864;2023-08-17T16:06:15;3.87;;;2.40;;
75207;SDS011;63795;55.684;37.864;2023-08-17T16:16:15;5.43;;;2.63;;
75207;SDS011;63795;55.684;37.864;2023-08-17T16:26:16;7.77;;;3.03;;
75207;SDS011;63795;55.684;37.864;2023-08-17T16:36:17;6.63;;;3.10;;
75207;SDS011;63795;55.684;37.864;2023-08-17T16:41:18;9.43;;;5.63;;
75207;SDS011;63795;55.684;37.864;2023-08-17T16:46:18;5.70;;;2.28;;
75207;SDS011;63795;55.684;37.864;2023-08-17T16:51:19;7.78;;;3.90;;
75207;SDS011;63795;55.684;37.864;2023-08-17T16:56:19;4.87;;;2.83;;
75207;SDS011;63795;55.684;37.864;2023-08-17T17:01:19;3.53;;;2.03;;
75207;SDS011;63795;55.684;37.864;2023-08-17T17:06:20;3.75;;;1.63;;
75207;SDS011;63795;55.684;37.864;2023-08-17T17:11:21;5.00;;;4.25;;
75207;SDS011;63795;55.684;37.864;2023-08-17T17:16:21;7.28;;;2.78;;
75207;SDS011;63795;55.684;37.864;2023-08-17T17:21:22;4.40;;;1.63;;
75207;SDS011;63795;55.684;37.864;2023-08-17T17:26:23;8.55;;;3.83;;
75207;SDS011;63795;55.684;37.864;2023-08-17T17:31:25;6.57;;;2.35;;
75207;SDS011;63795;55.684;37.864;2023-08-17T17:36:25;7.22;;;1.90;;
75207;SDS011;63795;55.684;37.864;2023-08-17T17:41:26;7.70;;;2.40;;
75207;SDS011;63795;55.684;37.864;2023-08-17T17:46:26;13.43;;;3.78;;
75207;SDS011;63795;55.684;37.864;2023-08-17T17:51:27;8.50;;;2.55;;
75207;SDS011;63795;55.684;37.864;2023-08-17T17:56:40;7.73;;;3.33;;
75207;SDS011;63795;55.684;37.864;2023-08-17T18:01:42;15.60;;;5.05;;
75207;SDS011;63795;55.684;37.864;2023-08-17T18:06:42;10.53;;;3.07;;
75207;SDS011;63795;55.684;37.864;2023-08-17T18:11:43;10.90;;;2.92;;
75207;SDS011;63795;55.684;37.864;2023-08-17T18:16:43;10.93;;;3.85;;
75207;SDS011;63795;55.684;37.864;2023-08-17T18:21:44;8.73;;;3.73;;
75207;SDS011;63795;55.684;37.864;2023-08-17T18:26:44;6.67;;;3.33;;
75207;SDS011;63795;55.684;37.864;2023-08-17T18:36:46;8.05;;;3.60;;
75207;SDS011;63795;55.684;37.864;2023-08-17T18:41:46;11.23;;;3.93;;
75207;SDS011;63795;55.684;37.864;2023-08-17T18:46:47;7.60;;;3.13;;
75207;SDS011;63795;55.684;37.864;2023-08-17T18:51:47;10.70;;;4.13;;
75207;SDS011;63795;55.684;37.864;2023-08-17T18:56:48;11.50;;;3.60;;
75207;SDS011;63795;55.684;37.864;2023-08-17T19:01:48;7.60;;;4.95;;
75207;SDS011;63795;55.684;37.864;2023-08-17T19:06:49;7.43;;;2.33;;
75207;SDS011;63795;55.684;37.864;2023-08-17T19:11:49;9.53;;;3.50;;
75207;SDS011;63795;55.684;37.864;2023-08-17T19:16:49;12.52;;;4.68;;
75207;SDS011;63795;55.684;37.864;2023-08-17T19:21:50;11.77;;;3.80;;
75207;SDS011;63795;55.684;37.864;2023-08-17T19:26:51;14.82;;;6.38;;
75207;SDS011;63795;55.684;37.864;2023-08-17T19:31:51;7.63;;;3.33;;
75207;SDS011;63795;55.684;37.864;2023-08-17T19:36:52;8.10;;;3.47;;
75207;SDS011;63795;55.684;37.864;2023-08-17T19:41:52;12.30;;;4.68;;
75207;SDS011;63795;55.684;37.864;2023-08-17T19:46:53;9.88;;;3.53;;
75207;SDS011;63795;55.684;37.864;2023-08-17T19:51:55;9.90;;;4.03;;
75207;SDS011;63795;55.684;37.864;2023-08-17T19:56:56;11.88;;;6.60;;
75207;SDS011;63795;55.684;37.864;2023-08-17T20:01:56;11.10;;;4.05;;
75207;SDS011;63795;55.684;37.864;2023-08-17T20:06:57;10.03;;;4.40;;
75207;SDS011;63795;55.684;37.864;2023-08-17T20:11:57;16.13;;;7.55;;
75207;SDS011;63795;55.684;37.864;2023-08-17T20:16:58;15.23;;;6.20;;
75207;SDS011;63795;55.684;37.864;2023-08-17T20:21:58;14.57;;;7.67;;
75207;SDS011;63795;55.684;37.864;2023-08-17T20:26:59;11.60;;;4.07;;
75207;SDS011;63795;55.684;37.864;2023-08-17T20:32:00;15.38;;;5.30;;
75207;SDS011;63795;55.684;37.864;2023-08-17T20:37:01;13.55;;;6.88;;
75207;SDS011;63795;55.684;37.864;2023-08-17T20:42:07;16.48;;;5.95;;
75207;SDS011;63795;55.684;37.864;2023-08-17T20:47:08;14.57;;;5.18;;
75207;SDS011;63795;55.684;37.864;2023-08-17T20:52:09;14.63;;;5.63;;
75207;SDS011;63795;55.684;37.864;2023-08-17T20:57:10;14.73;;;5.20;;
75207;SDS011;63795;55.684;37.864;2023-08-17T21:02:11;15.60;;;5.28;;
75207;SDS011;63795;55.684;37.864;2023-08-17T21:07:11;12.50;;;6.82;;
75207;SDS011;63795;55.684;37.864;2023-08-17T21:12:12;11.95;;;6.97;;
75207;SDS011;63795;55.684;37.864;2023-08-17T21:17:12;13.45;;;6.40;;
75207;SDS011;63795;55.684;37.864;2023-08-17T21:22:13;12.00;;;6.25;;
75207;SDS011;63795;55.684;37.864;2023-08-17T21:27:13;12.77;;;5.53;;
75207;SDS011;63795;55.684;37.864;2023-08-17T21:32:14;15.53;;;4.53;;
75207;SDS011;63795;55.684;37.864;2023-08-17T21:37:24;18.33;;;5.23;;
75207;SDS011;63795;55.684;37.864;2023-08-17T21:42:26;14.23;;;7.10;;
75207;SDS011;63795;55.684;37.864;2023-08-17T21:47:27;16.92;;;5.10;;
75207;SDS011;63795;55.684;37.864;2023-08-17T21:52:27;11.18;;;5.00;;
75207;SDS011;63795;55.684;37.864;2023-08-17T21:57:28;11.83;;;5.07;;
75207;SDS011;63795;55.684;37.864;2023-08-17T22:02:28;14.07;;;5.70;;
75207;SDS011;63795;55.684;37.864;2023-08-17T22:07:29;13.63;;;4.67;;
75207;SDS011;63795;55.684;37.864;2023-08-17T22:12:29;9.20;;;5.57;;
75207;SDS011;63795;55.684;37.864;2023-08-17T22:17:29;12.23;;;6.10;;
75207;SDS011;63795;55.684;37.864;2023-08-17T22:22:30;9.17;;;4.63;;
75207;SDS011;63795;55.684;37.864;2023-08-17T22:27:30;10.05;;;4.30;;
75207;SDS011;63795;55.684;37.864;2023-08-17T22:32:31;7.20;;;3.20;;
75207;SDS011;63795;55.684;37.864;2023-08-17T22:37:32;8.68;;;3.50;;
75207;SDS011;63795;55.684;37.864;2023-08-17T22:42:32;7.77;;;3.87;;
75207;SDS011;63795;55.684;37.864;2023-08-17T22:47:32;16.03;;;4.73;;
75207;SDS011;63795;55.684;37.864;2023-08-17T22:52:33;7.05;;;3.90;;
75207;SDS011;63795;55.684;37.864;2023-08-17T22:57:34;12.77;;;5.03;;
75207;SDS011;63795;55.684;37.864;2023-08-17T23:02:34;12.00;;;5.60;;
75207;SDS011;63795;55.684;37.864;2023-08-17T23:07:34;9.65;;;5.35;;
75207;SDS011;63795;55.684;37.864;2023-08-17T23:12:35;11.10;;;5.33;;
75207;SDS011;63795;55.684;37.864;2023-08-17T23:17:35;11.70;;;5.90;;
75207;SDS011;63795;55.684;37.864;2023-08-17T23:22:36;10.25;;;4.55;;
75207;SDS011;63795;55.684;37.864;2023-08-17T23:27:36;12.50;;;5.90;;
75207;SDS011;63795;55.684;37.864;2023-08-17T23:32:37;8.60;;;4.60;;
75207;SDS011;63795;55.684;37.864;2023-08-17T23:37:37;9.53;;;4.70;;
75207;SDS011;63795;55.684;37.864;2023-08-17T23:42:38;11.33;;;5.23;;
75207;SDS011;63795;55.684;37.864;2023-08-17T23:47:38;12.77;;;5.60;;
75207;SDS011;63795;55.684;37.864;2023-08-17T23:52:39;11.38;;;4.60;;
75207;SDS011;63795;55.684;37.864;2023-08-17T23:57:39;12.13;;;4.85;;
